createdAt,value
2023-12-21T00:02:05.186Z,12.53
2023-12-21T00:04:33.958Z,11.97
2023-12-21T00:07:02.553Z,11.97
2023-12-21T00:09:30.717Z,12.27
2023-12-21T00:11:59.144Z,13.03
2023-12-21T00:14:28.646Z,12.80
2023-12-21T00:16:56.775Z,12.00
2023-12-21T00:19:25.309Z,11.93
2023-12-21T00:21:53.661Z,12.47
2023-12-21T00:24:21.842Z,11.60
2023-12-21T00:26:50.262Z,12.67
2023-12-21T00:29:18.136Z,12.03
2023-12-21T00:31:46.657Z,12.13
2023-12-21T00:34:18.039Z,11.93
2023-12-21T00:36:48.724Z,11.03
2023-12-21T00:39:17.025Z,11.27
2023-12-21T00:41:45.291Z,10.90
2023-12-21T00:44:13.334Z,12.40
2023-12-21T00:46:41.836Z,12.07
2023-12-21T00:49:10.431Z,12.27
2023-12-21T00:51:38.849Z,12.20
2023-12-21T00:54:06.982Z,12.73
2023-12-21T00:56:35.221Z,12.83
2023-12-21T00:59:05.775Z,13.00
2023-12-21T01:01:34.439Z,14.20
2023-12-21T01:04:03.004Z,13.80
2023-12-21T01:06:32.081Z,14.77
2023-12-21T01:09:00.894Z,14.23
2023-12-21T01:11:29.834Z,13.60
2023-12-21T01:13:58.239Z,12.70
2023-12-21T01:16:26.680Z,12.87
2023-12-21T01:19:00.776Z,13.00
2023-12-21T01:21:29.139Z,14.37
2023-12-21T01:23:57.513Z,14.03
2023-12-21T01:26:27.944Z,14.20
2023-12-21T01:28:56.068Z,16.70
2023-12-21T01:31:26.808Z,18.20
2023-12-21T01:33:55.043Z,19.67
2023-12-21T01:36:23.573Z,19.40
2023-12-21T01:38:51.563Z,21.93
2023-12-21T01:41:19.316Z,22.67
2023-12-21T01:43:47.755Z,22.60
2023-12-21T01:46:15.775Z,23.77
2023-12-21T01:48:44.592Z,23.77
2023-12-21T01:51:13.270Z,25.90
2023-12-21T01:53:42.009Z,27.33
2023-12-21T01:56:10.658Z,28.70
2023-12-21T01:58:40.089Z,29.47
2023-12-21T02:01:08.969Z,32.63
2023-12-21T02:03:37.361Z,31.97
2023-12-21T02:06:05.923Z,32.43
2023-12-21T02:08:34.140Z,31.70
2023-12-21T02:11:08.010Z,31.53
2023-12-21T02:13:36.078Z,34.33
2023-12-21T02:16:13.105Z,32.27
2023-12-21T02:18:41.907Z,31.87
2023-12-21T02:21:11.809Z,32.07
2023-12-21T02:23:41.921Z,31.83
2023-12-21T02:26:10.860Z,30.33
2023-12-21T02:28:41.258Z,33.80
2023-12-21T02:31:09.713Z,29.83
2023-12-21T02:33:39.662Z,29.97
2023-12-21T02:36:10.967Z,28.77
2023-12-21T02:38:41.360Z,27.73
2023-12-21T02:41:09.309Z,28.43
2023-12-21T02:43:37.683Z,28.73
2023-12-21T02:46:05.783Z,27.57
2023-12-21T02:48:34.134Z,28.13
2023-12-21T02:51:02.286Z,26.40
2023-12-21T02:53:30.089Z,27.77
2023-12-21T02:55:58.621Z,26.63
2023-12-21T02:58:26.970Z,25.97
2023-12-21T03:00:55.092Z,26.47
2023-12-21T03:03:23.283Z,26.40
2023-12-21T03:05:51.474Z,27.73
2023-12-21T03:08:19.891Z,26.57
2023-12-21T03:10:47.831Z,28.73
2023-12-21T03:13:15.752Z,27.17
2023-12-21T03:15:43.907Z,27.57
2023-12-21T03:18:12.815Z,33.90
2023-12-21T03:20:41.319Z,25.80
2023-12-21T03:23:09.922Z,25.97
2023-12-21T03:25:38.355Z,25.70
2023-12-21T03:28:07.963Z,25.53
2023-12-21T03:30:36.427Z,26.20
2023-12-21T03:33:04.361Z,24.70
2023-12-21T03:35:33.132Z,24.60
2023-12-21T03:38:01.436Z,23.47
2023-12-21T03:40:30.295Z,20.50
2023-12-21T03:42:58.914Z,20.37
2023-12-21T03:45:27.095Z,19.73
2023-12-21T03:47:55.160Z,18.40
2023-12-21T03:50:23.088Z,17.17
2023-12-21T03:52:51.672Z,17.53
2023-12-21T03:55:19.825Z,16.20
2023-12-21T03:57:47.989Z,15.13
2023-12-21T04:00:21.018Z,15.03
2023-12-21T04:02:49.230Z,15.23
2023-12-21T04:05:17.382Z,16.30
2023-12-21T04:07:45.880Z,14.43
2023-12-21T04:10:14.374Z,14.57
2023-12-21T04:12:42.504Z,14.67
2023-12-21T04:15:13.026Z,14.50
2023-12-21T04:17:41.386Z,14.70
2023-12-21T04:20:11.814Z,14.07
2023-12-21T04:22:40.126Z,14.17
2023-12-21T04:25:08.703Z,13.63
2023-12-21T04:27:36.731Z,13.80
2023-12-21T04:30:05.161Z,13.27
2023-12-21T04:32:33.406Z,15.83
2023-12-21T04:35:01.722Z,18.73
2023-12-21T04:37:30.127Z,14.87
2023-12-21T04:39:58.330Z,14.30
2023-12-21T04:42:25.871Z,13.90
2023-12-21T04:44:54.002Z,13.97
2023-12-21T04:47:24.112Z,12.83
2023-12-21T04:49:53.253Z,13.53
2023-12-21T04:52:21.354Z,13.27
2023-12-21T04:54:49.751Z,12.83
2023-12-21T04:57:20.377Z,14.47
2023-12-21T04:59:50.281Z,18.60
2023-12-21T05:02:19.009Z,13.80
2023-12-21T05:04:47.376Z,12.37
2023-12-21T05:07:15.772Z,13.30
2023-12-21T05:09:44.142Z,12.57
2023-12-21T05:12:12.358Z,13.17
2023-12-21T05:14:40.444Z,12.60
2023-12-21T05:17:09.711Z,12.80
2023-12-21T05:19:39.408Z,12.87
2023-12-21T05:22:07.562Z,12.37
2023-12-21T05:24:41.600Z,12.73
2023-12-21T05:27:09.845Z,12.80
2023-12-21T05:29:37.892Z,13.13
2023-12-21T05:32:06.337Z,21.37
2023-12-21T05:34:34.955Z,30.03
2023-12-21T05:37:03.203Z,39.17
2023-12-21T05:39:37.049Z,15.57
2023-12-21T05:42:05.543Z,16.37
2023-12-21T05:44:33.138Z,14.37
2023-12-21T05:47:01.150Z,14.93
2023-12-21T05:49:29.368Z,14.27
2023-12-21T05:52:01.130Z,14.30
2023-12-21T05:54:31.884Z,15.27
2023-12-21T05:57:00.795Z,16.53
2023-12-21T05:59:29.094Z,15.03
2023-12-21T06:01:57.514Z,15.10
2023-12-21T06:04:26.070Z,18.63
2023-12-21T06:06:54.706Z,14.03
2023-12-21T06:09:23.313Z,12.87
2023-12-21T06:11:51.531Z,14.17
2023-12-21T06:14:19.523Z,17.67
2023-12-21T06:16:47.914Z,18.07
2023-12-21T06:19:17.370Z,16.20
2023-12-21T06:21:45.363Z,15.50
2023-12-21T06:24:16.478Z,13.97
2023-12-21T06:26:45.081Z,13.67
2023-12-21T06:29:13.408Z,13.10
2023-12-21T06:31:41.516Z,12.67
2023-12-21T06:34:09.247Z,12.93
2023-12-21T06:36:37.367Z,12.90
2023-12-21T06:39:05.332Z,11.93
2023-12-21T06:41:33.580Z,12.33
2023-12-21T06:44:01.827Z,11.93
2023-12-21T06:46:30.231Z,12.23
2023-12-21T06:48:58.562Z,10.90
2023-12-21T06:51:26.608Z,11.23
2023-12-21T06:53:55.473Z,11.50
2023-12-21T06:56:32.840Z,11.07
2023-12-21T06:59:03.786Z,10.30
2023-12-21T07:01:34.351Z,11.93
2023-12-21T07:04:03.848Z,13.10
2023-12-21T07:06:31.941Z,15.03
2023-12-21T07:09:00.485Z,11.13
2023-12-21T07:11:28.485Z,10.07
2023-12-21T07:14:02.327Z,10.23
2023-12-21T07:16:30.218Z,10.50
2023-12-21T07:18:59.530Z,10.27
2023-12-21T07:21:27.505Z,10.30
2023-12-21T07:23:55.683Z,10.03
2023-12-21T07:26:23.635Z,10.33
2023-12-21T07:28:52.393Z,10.23
2023-12-21T07:31:20.212Z,12.03
2023-12-21T07:33:48.567Z,11.73
2023-12-21T07:36:16.669Z,11.30
2023-12-21T07:38:45.029Z,13.83
2023-12-21T07:41:14.008Z,14.70
2023-12-21T07:43:43.097Z,11.93
2023-12-21T07:46:11.232Z,12.53
2023-12-21T07:48:39.451Z,11.90
2023-12-21T07:51:10.326Z,11.57
2023-12-21T07:53:38.596Z,11.77
2023-12-21T07:56:07.283Z,11.53
2023-12-21T07:58:37.473Z,16.47
2023-12-21T08:01:05.325Z,12.60
2023-12-21T08:03:33.326Z,12.57
2023-12-21T08:06:02.089Z,12.20
2023-12-21T08:08:31.340Z,13.23
2023-12-21T08:10:59.736Z,13.13
2023-12-21T08:13:28.039Z,12.67
2023-12-21T08:15:56.081Z,12.80
2023-12-21T08:18:24.044Z,12.40
2023-12-21T08:20:52.619Z,18.93
2023-12-21T08:23:20.422Z,13.87
2023-12-21T08:25:49.415Z,18.63
2023-12-21T08:28:17.738Z,12.50
2023-12-21T08:30:45.885Z,11.93
2023-12-21T08:33:14.362Z,13.50
2023-12-21T08:35:42.326Z,13.27
2023-12-21T08:38:10.368Z,13.90
2023-12-21T08:40:38.390Z,14.40
2023-12-21T08:43:06.490Z,12.47
2023-12-21T08:45:34.487Z,14.27
2023-12-21T08:48:02.494Z,13.97
2023-12-21T08:50:35.991Z,13.60
2023-12-21T08:53:07.222Z,13.43
2023-12-21T08:55:35.333Z,13.17
2023-12-21T08:58:05.751Z,12.53
2023-12-21T09:00:34.019Z,13.07
2023-12-21T09:03:04.905Z,11.80
2023-12-21T09:05:33.246Z,12.83
2023-12-21T09:08:04.609Z,14.00
2023-12-21T09:10:35.048Z,13.93
2023-12-21T09:13:15.512Z,14.13
2023-12-21T09:15:50.159Z,14.83
2023-12-21T09:18:22.900Z,14.60
2023-12-21T09:20:52.851Z,14.57
2023-12-21T09:23:26.439Z,15.97
2023-12-21T09:25:55.834Z,13.57
2023-12-21T09:28:24.040Z,14.77
2023-12-21T09:30:52.143Z,15.00
2023-12-21T09:33:20.402Z,15.60
2023-12-21T09:35:55.687Z,15.93
2023-12-21T09:38:26.261Z,16.53
2023-12-21T09:40:55.483Z,17.13
2023-12-21T09:43:25.532Z,17.23
2023-12-21T09:45:55.915Z,17.23
2023-12-21T09:48:44.505Z,17.17
2023-12-21T09:51:15.701Z,17.67
2023-12-21T09:53:45.505Z,16.97
2023-12-21T09:56:17.857Z,16.47
2023-12-21T09:58:47.042Z,16.00
2023-12-21T10:01:15.262Z,15.47
2023-12-21T10:03:46.391Z,16.27
2023-12-21T10:06:15.003Z,15.67
2023-12-21T10:08:45.778Z,16.50
2023-12-21T10:11:14.828Z,16.27
2023-12-21T10:13:49.000Z,17.07
2023-12-21T10:16:18.281Z,16.57
2023-12-21T10:18:46.926Z,18.03
2023-12-21T10:21:15.208Z,18.80
2023-12-21T10:23:44.657Z,19.07
2023-12-21T10:26:12.593Z,18.67
2023-12-21T10:28:41.202Z,20.80
2023-12-21T10:31:10.932Z,20.00
2023-12-21T10:33:39.104Z,18.93
2023-12-21T10:36:08.113Z,25.67
2023-12-21T10:38:36.660Z,26.30
2023-12-21T10:41:07.309Z,19.47
2023-12-21T10:43:36.703Z,20.33
2023-12-21T10:46:04.983Z,19.67
2023-12-21T10:48:39.743Z,17.40
2023-12-21T10:51:08.087Z,17.07
2023-12-21T10:53:38.230Z,17.77
2023-12-21T10:56:07.727Z,18.20
2023-12-21T10:58:37.563Z,18.60
2023-12-21T11:01:07.884Z,18.20
2023-12-21T11:03:38.823Z,18.67
2023-12-21T11:06:06.978Z,18.47
2023-12-21T11:08:37.872Z,20.03
2023-12-21T11:11:06.799Z,17.93
2023-12-21T11:13:36.064Z,18.53
2023-12-21T11:16:04.394Z,20.07
2023-12-21T11:18:33.260Z,18.57
2023-12-21T11:21:02.412Z,19.17
2023-12-21T11:23:31.207Z,17.63
2023-12-21T11:26:00.442Z,18.93
2023-12-21T11:28:34.469Z,20.53
2023-12-21T11:31:20.167Z,20.27
2023-12-21T11:33:48.387Z,21.07
2023-12-21T11:36:27.947Z,20.50
2023-12-21T11:38:58.219Z,19.57
2023-12-21T11:41:26.495Z,18.57
2023-12-21T11:44:02.281Z,20.43
2023-12-21T11:46:34.257Z,22.13
2023-12-21T11:49:06.152Z,21.63
2023-12-21T11:51:38.608Z,22.37
2023-12-21T11:54:07.243Z,23.43
2023-12-21T11:56:38.058Z,22.23
2023-12-21T11:59:08.199Z,21.77
2023-12-21T12:01:36.413Z,21.33
2023-12-21T12:04:07.076Z,22.13
2023-12-21T12:06:35.973Z,21.57
2023-12-21T12:09:04.314Z,22.77
2023-12-21T12:11:32.941Z,22.63
2023-12-21T12:14:00.941Z,24.90
2023-12-21T12:16:33.816Z,23.80
2023-12-21T12:19:01.967Z,26.47
2023-12-21T12:21:31.688Z,24.70
2023-12-21T12:24:00.172Z,26.90
2023-12-21T12:26:30.701Z,28.07
2023-12-21T12:28:58.903Z,28.20
2023-12-21T12:31:27.194Z,30.30
2023-12-21T12:33:55.527Z,27.07
2023-12-21T12:36:23.432Z,25.70
2023-12-21T12:38:52.247Z,26.93
2023-12-21T12:41:26.188Z,27.87
2023-12-21T12:43:54.704Z,28.27
2023-12-21T12:46:26.380Z,27.60
2023-12-21T12:48:54.566Z,27.93
2023-12-21T12:51:24.080Z,28.23
2023-12-21T12:53:53.438Z,53.60
2023-12-21T12:56:21.411Z,34.30
2023-12-21T12:58:58.132Z,38.90
2023-12-21T13:01:29.180Z,39.67
2023-12-21T13:04:00.488Z,29.33
2023-12-21T13:06:30.416Z,30.20
2023-12-21T13:08:59.732Z,30.07
2023-12-21T13:11:28.612Z,35.87
2023-12-21T13:13:57.898Z,30.00
2023-12-21T13:16:26.089Z,27.87
2023-12-21T13:18:54.611Z,27.80
2023-12-21T13:21:23.129Z,26.57
2023-12-21T13:23:51.703Z,30.43
2023-12-21T13:26:20.244Z,28.53
2023-12-21T13:28:48.450Z,28.17
2023-12-21T13:31:17.841Z,34.37
2023-12-21T13:33:46.153Z,28.37
2023-12-21T13:36:14.610Z,28.03
2023-12-21T13:38:43.054Z,30.40
2023-12-21T13:41:11.269Z,31.03
2023-12-21T13:43:43.903Z,28.87
2023-12-21T13:46:15.032Z,29.67
2023-12-21T13:48:43.222Z,29.93
2023-12-21T13:51:10.849Z,30.63
2023-12-21T13:53:38.879Z,31.40
2023-12-21T13:56:07.557Z,32.07
2023-12-21T13:58:38.667Z,30.70
2023-12-21T14:01:07.958Z,32.07
2023-12-21T14:03:36.210Z,31.47
2023-12-21T14:06:05.604Z,33.57
2023-12-21T14:08:33.628Z,38.43
2023-12-21T14:11:01.648Z,36.17
2023-12-21T14:13:29.964Z,38.30
2023-12-21T14:15:59.676Z,37.73
2023-12-21T14:18:27.971Z,46.60
2023-12-21T14:20:56.100Z,41.50
2023-12-21T14:23:24.341Z,43.47
2023-12-21T14:25:52.703Z,48.10
2023-12-21T14:28:21.205Z,52.00
2023-12-21T14:30:52.181Z,49.53
2023-12-21T14:33:20.155Z,51.10
2023-12-21T14:35:49.710Z,56.10
2023-12-21T14:38:18.313Z,45.53
2023-12-21T14:40:46.844Z,55.83
2023-12-21T14:43:15.089Z,62.23
2023-12-21T14:45:43.140Z,78.30
2023-12-21T14:48:11.526Z,69.93
2023-12-21T14:50:43.993Z,63.07
2023-12-21T14:53:12.225Z,57.20
2023-12-21T14:55:42.540Z,59.93
2023-12-21T14:58:11.017Z,65.33
2023-12-21T15:00:49.293Z,69.13
2023-12-21T15:03:17.650Z,68.23
2023-12-21T15:05:46.262Z,68.53
2023-12-21T15:08:16.441Z,64.97
2023-12-21T15:10:44.503Z,62.37
2023-12-21T15:13:14.194Z,66.20
2023-12-21T15:15:44.359Z,83.07
2023-12-21T15:18:12.865Z,76.43
2023-12-21T15:20:42.304Z,75.43
2023-12-21T15:23:10.385Z,73.67
2023-12-21T15:25:38.126Z,78.00
2023-12-21T15:28:06.467Z,64.00
2023-12-21T15:30:37.598Z,58.93
2023-12-21T15:33:05.475Z,57.27
2023-12-21T15:35:33.829Z,52.67
2023-12-21T15:38:04.629Z,54.23
2023-12-21T15:40:32.648Z,52.83
2023-12-21T15:43:00.151Z,50.63
2023-12-21T15:45:28.714Z,50.13
2023-12-21T15:47:56.912Z,47.13
2023-12-21T15:50:25.561Z,53.17
2023-12-21T15:52:54.546Z,56.90
2023-12-21T15:55:23.609Z,59.00
2023-12-21T15:57:51.765Z,60.10
2023-12-21T16:00:20.356Z,59.13
2023-12-21T16:02:50.849Z,55.57
2023-12-21T16:05:19.618Z,51.97
2023-12-21T16:07:48.061Z,58.77
2023-12-21T16:10:16.503Z,53.37
2023-12-21T16:12:46.588Z,65.87
2023-12-21T16:15:14.795Z,65.97
2023-12-21T16:17:42.577Z,68.33
2023-12-21T16:20:11.203Z,58.13
2023-12-21T16:22:39.574Z,56.80
2023-12-21T16:25:07.812Z,58.60
2023-12-21T16:27:39.904Z,59.97
2023-12-21T16:30:08.947Z,63.63
2023-12-21T16:32:38.241Z,67.17
2023-12-21T16:35:06.602Z,65.83
2023-12-21T16:37:34.987Z,68.50
2023-12-21T16:40:05.805Z,78.50
2023-12-21T16:42:37.579Z,78.50
2023-12-21T16:45:07.734Z,74.70
2023-12-21T16:47:35.917Z,68.70
2023-12-21T16:50:04.299Z,72.37
2023-12-21T16:52:33.054Z,77.43
2023-12-21T16:55:02.629Z,75.30
2023-12-21T16:57:30.904Z,74.97
2023-12-21T17:00:00.468Z,77.17
2023-12-21T17:02:28.865Z,85.43
2023-12-21T17:04:59.015Z,83.27
2023-12-21T17:07:27.633Z,87.90
2023-12-21T17:09:58.514Z,76.83
2023-12-21T17:12:26.536Z,74.80
2023-12-21T17:14:54.893Z,78.27
2023-12-21T17:17:26.911Z,74.37
2023-12-21T17:19:54.701Z,75.77
2023-12-21T17:22:22.879Z,80.83
2023-12-21T17:24:50.759Z,71.17
2023-12-21T17:27:19.125Z,67.80
2023-12-21T17:29:47.586Z,69.47
2023-12-21T17:32:15.934Z,67.10
2023-12-21T17:34:45.360Z,68.87
2023-12-21T17:37:13.808Z,63.23
2023-12-21T17:39:44.990Z,61.93
2023-12-21T17:42:12.998Z,63.87
2023-12-21T17:44:41.872Z,57.27
2023-12-21T17:47:10.042Z,57.33
2023-12-21T17:49:38.184Z,53.17
2023-12-21T17:52:06.194Z,55.23
2023-12-21T17:54:38.833Z,56.50
2023-12-21T17:57:06.625Z,55.47
2023-12-21T17:59:34.877Z,57.30
2023-12-21T18:02:07.451Z,51.50
2023-12-21T18:04:35.783Z,55.17
2023-12-21T18:07:03.807Z,49.80
2023-12-21T18:09:32.015Z,50.40
2023-12-21T18:12:00.448Z,44.53
2023-12-21T18:14:28.544Z,33.47
2023-12-21T18:16:56.635Z,41.97
2023-12-21T18:19:24.862Z,37.97
2023-12-21T18:21:53.162Z,37.57
2023-12-21T18:24:22.836Z,43.70
2023-12-21T18:29:37.780Z,47.40
2023-12-21T18:32:06.715Z,71.23
2023-12-21T18:34:34.597Z,51.60
2023-12-21T18:37:05.782Z,54.90
2023-12-21T18:39:34.066Z,37.30
2023-12-21T18:42:02.631Z,59.50
2023-12-21T18:44:31.449Z,71.37
2023-12-21T18:46:59.708Z,63.97
2023-12-21T18:49:28.100Z,33.03
2023-12-21T18:51:56.816Z,37.27
2023-12-21T18:54:25.384Z,47.43
2023-12-21T18:56:53.651Z,51.27
2023-12-21T18:59:21.893Z,42.03
2023-12-21T19:01:49.953Z,46.33
2023-12-21T19:04:18.536Z,50.90
2023-12-21T19:06:46.950Z,47.43
2023-12-21T19:09:14.834Z,44.93
2023-12-21T19:11:43.096Z,50.87
2023-12-21T19:14:11.234Z,52.80
2023-12-21T19:16:45.939Z,49.30
2023-12-21T19:19:14.473Z,55.03
2023-12-21T19:21:47.217Z,43.03
2023-12-21T19:24:15.390Z,41.43
2023-12-21T19:26:43.066Z,42.83
2023-12-21T19:29:11.427Z,43.47
2023-12-21T19:31:39.880Z,43.40
2023-12-21T19:34:08.122Z,45.73
2023-12-21T19:36:36.365Z,45.53
2023-12-21T19:39:06.318Z,35.33
2023-12-21T19:41:34.543Z,36.70
2023-12-21T19:44:05.345Z,35.93
2023-12-21T19:46:34.017Z,31.83
2023-12-21T19:49:04.685Z,32.90
2023-12-21T19:51:34.670Z,35.93
2023-12-21T19:54:06.422Z,35.03
2023-12-21T19:56:36.008Z,36.80
2023-12-21T19:59:05.175Z,35.37
2023-12-21T20:01:35.732Z,33.53
2023-12-21T20:04:03.599Z,38.60
2023-12-21T20:06:31.992Z,38.23
2023-12-21T20:09:00.714Z,29.70
2023-12-21T20:11:30.037Z,32.20
2023-12-21T20:13:59.990Z,30.90
2023-12-21T20:16:28.495Z,29.10
2023-12-21T20:18:56.897Z,33.47
2023-12-21T20:21:28.740Z,28.80
2023-12-21T20:23:56.909Z,28.40
2023-12-21T20:26:25.423Z,27.73
2023-12-21T20:28:53.549Z,32.37
2023-12-21T20:31:21.660Z,28.60
2023-12-21T20:33:52.604Z,31.20
2023-12-21T20:36:20.835Z,30.67
2023-12-21T20:38:48.961Z,31.27
2023-12-21T20:41:17.612Z,30.10
2023-12-21T20:43:48.599Z,29.13
2023-12-21T20:46:17.008Z,32.40
2023-12-21T20:48:44.740Z,29.57
2023-12-21T20:51:13.138Z,27.37
2023-12-21T20:53:42.019Z,29.30
2023-12-21T20:56:10.574Z,30.90
2023-12-21T20:58:39.048Z,31.07
2023-12-21T21:01:07.202Z,32.13
2023-12-21T21:03:38.871Z,32.43
2023-12-21T21:06:07.568Z,45.63
2023-12-21T21:08:36.098Z,31.07
2023-12-21T21:11:05.148Z,30.83
2023-12-21T21:13:33.467Z,30.67
2023-12-21T21:16:01.770Z,29.40
2023-12-21T21:18:30.358Z,31.43
2023-12-21T21:20:59.374Z,30.07
2023-12-21T21:23:30.110Z,29.23
2023-12-21T21:25:59.184Z,29.83
2023-12-21T21:28:30.433Z,30.10
2023-12-21T21:31:01.448Z,28.40
2023-12-21T21:33:30.322Z,28.73
2023-12-21T21:36:00.492Z,31.17
2023-12-21T21:38:28.877Z,28.27
2023-12-21T21:41:01.117Z,29.03
2023-12-21T21:43:33.051Z,28.77
2023-12-21T21:46:07.604Z,26.60
2023-12-21T21:48:38.844Z,28.03
2023-12-21T21:51:17.368Z,28.53
2023-12-21T21:53:46.461Z,27.93
2023-12-21T21:56:14.772Z,27.10
2023-12-21T21:58:43.060Z,28.00
2023-12-21T22:01:11.307Z,28.37
2023-12-21T22:03:39.586Z,25.93
2023-12-21T22:06:08.208Z,26.80
2023-12-21T22:08:39.377Z,28.50
2023-12-21T22:11:08.596Z,27.47
2023-12-21T22:13:39.690Z,27.83
2023-12-21T22:16:08.133Z,26.83
2023-12-21T22:18:36.984Z,26.73
2023-12-21T22:21:05.487Z,25.93
2023-12-21T22:23:33.407Z,26.17
2023-12-21T22:26:03.525Z,27.23
2023-12-21T22:28:32.196Z,26.83
2023-12-21T22:31:00.667Z,26.50
2023-12-21T22:33:29.107Z,26.83
2023-12-21T22:36:00.380Z,26.87
2023-12-21T22:38:31.590Z,27.47
2023-12-21T22:40:59.650Z,32.17
2023-12-21T22:43:35.088Z,32.43
2023-12-21T22:46:10.745Z,32.40
2023-12-21T22:48:39.271Z,32.23
2023-12-21T22:51:08.104Z,34.97
2023-12-21T22:53:36.047Z,33.87
2023-12-21T22:56:04.048Z,36.40
2023-12-21T22:58:32.604Z,34.67
2023-12-21T23:01:01.090Z,37.30
2023-12-21T23:03:29.285Z,35.80
2023-12-21T23:05:57.649Z,55.90
2023-12-21T23:08:26.001Z,36.43
2023-12-21T23:10:54.701Z,37.27
2023-12-21T23:13:23.393Z,39.73
2023-12-21T23:15:51.299Z,39.50
2023-12-21T23:18:20.541Z,40.63
2023-12-21T23:20:48.807Z,39.93
2023-12-21T23:23:17.360Z,44.07
2023-12-21T23:25:45.776Z,43.83
2023-12-21T23:28:13.995Z,44.43
2023-12-21T23:30:42.430Z,42.83
2023-12-21T23:33:11.748Z,44.87
2023-12-21T23:35:39.839Z,43.93
2023-12-21T23:38:08.113Z,47.07
2023-12-21T23:40:36.156Z,47.27
2023-12-21T23:43:04.137Z,45.87
2023-12-21T23:45:32.466Z,46.80
2023-12-21T23:48:00.550Z,46.83
2023-12-21T23:50:28.855Z,45.80
2023-12-21T23:52:57.089Z,46.80
2023-12-21T23:55:25.482Z,48.87
2023-12-21T23:57:53.551Z,46.20
